createdAt,value
2023-03-30T00:01:12.023Z,9.02
2023-03-30T00:03:43.695Z,7.78
2023-03-30T00:06:11.552Z,9.68
2023-03-30T00:08:39.019Z,8.68
2023-03-30T00:11:08.749Z,8.65
2023-03-30T00:13:36.560Z,9.38
2023-03-30T00:16:04.886Z,7.12
2023-03-30T00:18:34.338Z,6.75
2023-03-30T00:21:05.345Z,7.15
2023-03-30T00:23:33.427Z,7.20
2023-03-30T00:26:00.937Z,7.22
2023-03-30T00:28:30.901Z,8.20
2023-03-30T00:30:58.917Z,7.10
2023-03-30T00:33:41.222Z,6.47
2023-03-30T00:36:09.987Z,7.97
2023-03-30T00:38:37.715Z,7.37
2023-03-30T00:41:05.609Z,8.20
2023-03-30T00:43:33.706Z,6.87
2023-03-30T00:46:01.594Z,6.68
2023-03-30T00:48:34.609Z,7.00
2023-03-30T00:51:09.478Z,8.05
2023-03-30T00:53:58.309Z,7.47
2023-03-30T00:56:27.296Z,7.65
2023-03-30T00:58:55.540Z,6.62
2023-03-30T01:01:28.704Z,9.25
2023-03-30T01:03:59.444Z,7.78
2023-03-30T01:06:29.872Z,7.57
2023-03-30T01:09:00.847Z,6.43
2023-03-30T01:11:28.542Z,7.87
2023-03-30T01:14:01.308Z,8.40
2023-03-30T01:16:36.100Z,7.65
2023-03-30T01:19:25.816Z,11.18
2023-03-30T01:22:12.860Z,6.85
2023-03-30T01:25:03.330Z,7.10
2023-03-30T01:28:08.260Z,6.25
2023-03-30T01:31:12.690Z,7.07
2023-03-30T01:34:18.115Z,7.50
2023-03-30T01:36:54.390Z,6.35
2023-03-30T01:39:33.243Z,8.70
2023-03-30T01:42:09.323Z,7.30
2023-03-30T01:44:51.711Z,7.28
2023-03-30T01:47:25.284Z,10.82
2023-03-30T01:50:06.612Z,9.82
2023-03-30T01:52:42.572Z,7.50
2023-03-30T01:55:12.066Z,8.65
2023-03-30T01:58:03.739Z,6.57
2023-03-30T02:00:31.558Z,7.00
2023-03-30T02:03:24.863Z,7.87
2023-03-30T02:05:53.798Z,12.00
2023-03-30T02:08:24.015Z,9.37
2023-03-30T02:10:51.847Z,10.23
2023-03-30T02:13:19.294Z,6.72
2023-03-30T02:15:50.466Z,7.18
2023-03-30T02:20:49.495Z,6.50
2023-03-30T02:23:20.736Z,7.07
2023-03-30T02:25:48.514Z,7.45
2023-03-30T02:28:18.491Z,6.40
2023-03-30T02:30:45.983Z,6.72
2023-03-30T02:33:35.676Z,6.25
2023-03-30T02:36:21.874Z,6.53
2023-03-30T02:38:58.406Z,7.15
2023-03-30T02:42:00.619Z,6.35
2023-03-30T02:44:34.573Z,6.68
2023-03-30T02:47:07.057Z,7.15
2023-03-30T02:49:53.789Z,6.85
2023-03-30T02:52:43.174Z,6.22
2023-03-30T02:55:23.422Z,7.00
2023-03-30T02:58:03.246Z,6.10
2023-03-30T03:00:41.629Z,8.52
2023-03-30T03:03:34.541Z,6.18
2023-03-30T03:06:02.634Z,7.70
2023-03-30T03:08:34.145Z,6.12
2023-03-30T03:11:02.285Z,6.70
2023-03-30T03:13:30.333Z,7.35
2023-03-30T03:15:58.278Z,5.85
2023-03-30T03:18:27.044Z,6.40
2023-03-30T03:20:54.685Z,6.45
2023-03-30T03:23:23.193Z,6.72
2023-03-30T03:25:51.503Z,8.73
2023-03-30T03:28:19.312Z,7.32
2023-03-30T03:30:49.056Z,5.47
2023-03-30T03:33:17.035Z,6.72
2023-03-30T03:35:45.849Z,6.18
2023-03-30T03:38:14.066Z,7.65
2023-03-30T03:40:42.106Z,6.12
2023-03-30T03:43:09.707Z,5.62
2023-03-30T03:45:37.198Z,6.40
2023-03-30T03:48:05.089Z,6.28
2023-03-30T03:50:33.082Z,6.37
2023-03-30T03:53:00.592Z,5.45
2023-03-30T03:55:29.235Z,8.48
2023-03-30T03:57:57.526Z,9.33
2023-03-30T04:00:26.754Z,8.80
2023-03-30T04:02:54.727Z,8.55
2023-03-30T04:05:22.211Z,10.55
2023-03-30T04:07:50.112Z,9.05
2023-03-30T04:10:18.106Z,9.75
2023-03-30T04:12:46.068Z,8.20
2023-03-30T04:15:13.925Z,6.28
2023-03-30T04:17:42.148Z,12.25
2023-03-30T04:20:12.645Z,8.35
2023-03-30T04:22:42.057Z,7.62
2023-03-30T04:25:15.801Z,8.45
2023-03-30T04:27:44.217Z,8.10
2023-03-30T04:30:13.265Z,7.32
2023-03-30T04:35:11.218Z,8.50
2023-03-30T04:37:42.197Z,8.55
2023-03-30T04:40:11.094Z,7.35
2023-03-30T04:42:39.741Z,6.18
2023-03-30T04:45:08.157Z,6.55
2023-03-30T04:47:36.423Z,6.72
2023-03-30T04:50:05.182Z,6.47
2023-03-30T04:52:34.567Z,7.43
2023-03-30T04:55:05.139Z,6.40
2023-03-30T04:57:33.530Z,7.90
2023-03-30T05:00:01.410Z,5.85
2023-03-30T05:02:30.212Z,7.30
2023-03-30T05:04:59.200Z,6.70
2023-03-30T05:07:27.268Z,7.40
2023-03-30T05:09:56.081Z,6.47
2023-03-30T05:12:23.760Z,9.30
2023-03-30T05:14:51.300Z,6.00
2023-03-30T05:17:19.601Z,6.90
2023-03-30T05:19:50.105Z,6.75
2023-03-30T05:22:18.444Z,6.55
2023-03-30T05:24:46.248Z,6.00
2023-03-30T05:27:14.120Z,6.35
2023-03-30T05:29:42.190Z,5.95
2023-03-30T05:32:11.989Z,5.62
2023-03-30T05:34:39.618Z,5.70
2023-03-30T05:37:08.304Z,5.90
2023-03-30T05:39:37.871Z,6.12
2023-03-30T05:42:05.881Z,5.15
2023-03-30T05:44:33.896Z,7.70
2023-03-30T05:47:03.216Z,6.37
2023-03-30T05:49:31.669Z,5.62
2023-03-30T05:52:01.892Z,7.25
2023-03-30T05:54:29.729Z,6.18
2023-03-30T05:56:57.726Z,5.65
2023-03-30T05:59:25.647Z,5.43
2023-03-30T06:01:53.174Z,6.53
2023-03-30T06:04:21.726Z,8.77
2023-03-30T06:06:49.859Z,7.35
2023-03-30T06:09:17.362Z,7.68
2023-03-30T06:11:46.048Z,4.97
2023-03-30T06:14:14.558Z,5.72
2023-03-30T06:16:44.632Z,5.60
2023-03-30T06:19:15.191Z,6.45
2023-03-30T06:21:42.888Z,6.10
2023-03-30T06:24:12.943Z,6.80
2023-03-30T06:26:41.904Z,6.87
2023-03-30T06:29:09.711Z,5.25
2023-03-30T06:31:37.497Z,5.53
2023-03-30T06:34:08.069Z,6.12
2023-03-30T06:36:44.843Z,5.43
2023-03-30T06:39:14.534Z,6.55
2023-03-30T06:41:42.519Z,5.82
2023-03-30T06:44:15.512Z,5.68
2023-03-30T06:46:47.093Z,6.25
2023-03-30T06:49:15.088Z,5.35
2023-03-30T06:51:47.239Z,5.28
2023-03-30T06:54:15.047Z,5.45
2023-03-30T06:56:43.315Z,6.12
2023-03-30T06:59:10.920Z,5.80
2023-03-30T07:01:40.080Z,5.80
2023-03-30T07:04:09.670Z,6.28
2023-03-30T07:06:37.878Z,5.45
2023-03-30T07:09:05.778Z,5.75
2023-03-30T07:11:33.572Z,5.37
2023-03-30T07:14:02.468Z,4.87
2023-03-30T07:16:30.752Z,4.93
2023-03-30T07:18:58.289Z,5.47
2023-03-30T07:21:26.125Z,5.53
2023-03-30T07:23:53.851Z,6.60
2023-03-30T07:26:24.114Z,5.65
2023-03-30T07:28:52.278Z,5.00
2023-03-30T07:31:21.942Z,5.03
2023-03-30T07:33:50.159Z,6.20
2023-03-30T07:36:18.861Z,5.90
2023-03-30T07:38:47.398Z,5.30
2023-03-30T07:41:15.674Z,4.97
2023-03-30T07:43:43.798Z,5.25
2023-03-30T07:46:14.563Z,5.95
2023-03-30T07:48:43.098Z,4.72
2023-03-30T07:51:12.397Z,5.53
2023-03-30T07:53:42.302Z,5.07
2023-03-30T07:56:10.551Z,4.97
2023-03-30T07:58:39.967Z,6.53
2023-03-30T08:01:08.305Z,5.03
2023-03-30T08:06:05.746Z,4.50
2023-03-30T08:08:33.972Z,6.00
2023-03-30T08:11:02.623Z,6.37
2023-03-30T08:13:49.220Z,5.00
2023-03-30T08:16:17.072Z,5.35
2023-03-30T08:18:47.331Z,5.40
2023-03-30T08:23:42.419Z,6.07
2023-03-30T08:26:09.945Z,7.47
2023-03-30T08:28:38.197Z,5.93
2023-03-30T08:31:06.660Z,6.25
2023-03-30T08:33:35.026Z,8.52
2023-03-30T08:36:03.569Z,7.35
2023-03-30T08:38:31.671Z,6.25
2023-03-30T08:40:59.211Z,5.80
2023-03-30T08:43:48.522Z,6.87
2023-03-30T08:46:17.703Z,5.87
2023-03-30T08:48:45.390Z,6.05
2023-03-30T08:51:24.608Z,5.60
2023-03-30T08:53:55.926Z,5.90
2023-03-30T08:56:30.777Z,5.75
2023-03-30T08:58:58.522Z,4.85
2023-03-30T09:01:31.903Z,4.18
2023-03-30T09:04:23.826Z,5.90
2023-03-30T09:06:52.287Z,5.30
2023-03-30T09:09:21.902Z,5.65
2023-03-30T09:11:53.400Z,5.90
2023-03-30T09:14:54.302Z,6.20
2023-03-30T09:17:25.600Z,5.65
2023-03-30T09:19:58.589Z,5.22
2023-03-30T09:22:32.474Z,5.22
2023-03-30T09:25:00.232Z,4.80
2023-03-30T09:27:45.758Z,5.47
2023-03-30T09:30:19.093Z,5.87
2023-03-30T09:32:53.092Z,8.10
2023-03-30T09:35:25.128Z,6.72
2023-03-30T09:37:52.818Z,6.78
2023-03-30T09:40:30.497Z,4.55
2023-03-30T09:43:09.962Z,4.97
2023-03-30T09:48:06.961Z,5.20
2023-03-30T09:50:45.867Z,6.90
2023-03-30T09:53:29.509Z,5.50
2023-03-30T09:56:16.491Z,6.68
2023-03-30T09:58:44.283Z,6.15
2023-03-30T10:01:18.455Z,6.90
2023-03-30T10:04:05.305Z,6.20
2023-03-30T10:06:55.129Z,4.60
2023-03-30T10:09:23.748Z,7.55
2023-03-30T10:11:52.112Z,6.65
2023-03-30T10:14:28.216Z,5.40
2023-03-30T10:16:56.715Z,9.20
2023-03-30T10:19:25.140Z,6.55
2023-03-30T10:21:55.159Z,6.53
2023-03-30T10:27:18.221Z,6.18
2023-03-30T10:29:46.903Z,7.07
2023-03-30T10:32:21.590Z,7.82
2023-03-30T10:34:56.811Z,7.65
2023-03-30T10:37:41.305Z,9.65
2023-03-30T10:40:19.095Z,6.43
2023-03-30T10:42:48.429Z,7.70
2023-03-30T10:45:18.849Z,9.80
2023-03-30T10:50:41.825Z,11.73
2023-03-30T10:53:30.730Z,12.70
2023-03-30T10:56:08.046Z,12.88
2023-03-30T10:58:59.858Z,13.68
2023-03-30T11:01:43.250Z,12.20
2023-03-30T11:04:23.331Z,12.63
2023-03-30T11:06:54.573Z,10.93
2023-03-30T11:09:25.016Z,11.80
2023-03-30T11:11:54.561Z,9.93
2023-03-30T11:14:44.144Z,9.15
2023-03-30T11:17:16.479Z,11.70
2023-03-30T11:19:47.517Z,9.25
2023-03-30T11:22:17.230Z,11.43
2023-03-30T11:24:44.961Z,9.38
2023-03-30T11:27:22.294Z,9.77
2023-03-30T11:29:53.873Z,10.05
2023-03-30T11:33:06.532Z,8.07
2023-03-30T11:35:48.109Z,8.93
2023-03-30T11:38:39.600Z,8.93
2023-03-30T11:41:13.621Z,7.15
2023-03-30T11:43:41.467Z,6.18
2023-03-30T11:46:23.533Z,7.10
2023-03-30T11:49:05.768Z,6.18
2023-03-30T11:52:01.565Z,6.85
2023-03-30T11:54:59.850Z,6.93
2023-03-30T11:57:40.677Z,6.78
2023-03-30T12:00:41.139Z,6.80
2023-03-30T12:03:42.824Z,6.20
2023-03-30T12:06:13.444Z,6.22
2023-03-30T12:09:01.297Z,6.10
2023-03-30T12:11:50.070Z,6.90
2023-03-30T12:14:43.040Z,6.28
2023-03-30T12:17:44.572Z,7.93
2023-03-30T12:20:18.089Z,5.87
2023-03-30T12:23:10.237Z,7.53
2023-03-30T12:25:56.669Z,5.72
2023-03-30T12:28:29.821Z,5.95
2023-03-30T12:31:04.194Z,7.10
2023-03-30T12:33:44.284Z,6.43
2023-03-30T12:36:38.354Z,6.80
2023-03-30T12:39:22.002Z,5.72
2023-03-30T12:41:50.325Z,5.78
2023-03-30T12:44:29.310Z,6.22
2023-03-30T12:47:15.781Z,5.65
2023-03-30T12:50:08.857Z,5.18
2023-03-30T12:52:39.144Z,5.72
2023-03-30T12:55:50.033Z,5.43
2023-03-30T12:59:00.053Z,6.20
2023-03-30T13:01:27.911Z,6.07
2023-03-30T13:03:59.627Z,7.00
2023-03-30T13:06:30.039Z,7.40
2023-03-30T13:09:22.247Z,6.22
2023-03-30T13:11:50.128Z,5.97
2023-03-30T13:14:29.971Z,6.20
2023-03-30T13:17:00.834Z,5.87
2023-03-30T13:20:26.112Z,4.90
2023-03-30T13:23:12.446Z,6.12
2023-03-30T13:25:49.890Z,6.30
2023-03-30T13:28:48.284Z,4.80
2023-03-30T13:31:26.313Z,6.18
2023-03-30T13:34:20.046Z,5.47
2023-03-30T13:37:09.285Z,8.27
2023-03-30T13:39:45.916Z,5.65
2023-03-30T13:42:23.906Z,7.18
2023-03-30T13:44:57.508Z,10.88
2023-03-30T13:47:41.198Z,7.47
2023-03-30T13:50:31.171Z,6.85
2023-03-30T13:52:59.635Z,6.82
2023-03-30T13:55:40.652Z,10.80
2023-03-30T13:58:33.632Z,8.80
2023-03-30T14:01:01.931Z,8.27
2023-03-30T14:03:32.628Z,8.15
2023-03-30T14:06:03.006Z,4.68
2023-03-30T14:08:34.450Z,7.40
2023-03-30T14:11:27.083Z,7.82
2023-03-30T14:13:55.014Z,7.07
2023-03-30T14:16:42.813Z,6.28
2023-03-30T14:19:30.873Z,7.47
2023-03-30T14:22:00.919Z,5.55
2023-03-30T14:24:33.204Z,6.45
2023-03-30T14:27:12.241Z,5.50
2023-03-30T14:29:47.394Z,5.70
2023-03-30T14:32:15.985Z,7.47
2023-03-30T14:34:48.442Z,6.87
2023-03-30T14:37:16.116Z,7.15
2023-03-30T14:39:46.143Z,5.15
2023-03-30T14:42:17.576Z,5.12
2023-03-30T14:44:46.774Z,6.57
2023-03-30T14:47:15.384Z,5.07
2023-03-30T14:49:43.615Z,5.55
2023-03-30T14:52:17.349Z,7.07
2023-03-30T14:54:57.646Z,6.53
2023-03-30T14:57:34.759Z,6.72
2023-03-30T15:00:08.182Z,5.37
2023-03-30T15:02:37.585Z,6.55
2023-03-30T15:05:05.366Z,5.53
2023-03-30T15:07:32.894Z,4.43
2023-03-30T15:10:00.669Z,4.93
2023-03-30T15:12:36.088Z,5.85
2023-03-30T15:15:06.184Z,6.40
2023-03-30T15:17:33.703Z,5.70
2023-03-30T15:20:01.424Z,5.28
2023-03-30T15:22:55.824Z,5.35
2023-03-30T15:25:33.191Z,6.35
2023-03-30T15:28:04.165Z,5.82
2023-03-30T15:30:37.885Z,4.20
2023-03-30T15:33:07.467Z,4.72
2023-03-30T15:35:36.448Z,5.53
2023-03-30T15:38:10.590Z,6.32
2023-03-30T15:40:42.738Z,7.35
2023-03-30T15:43:30.212Z,5.20
2023-03-30T15:46:12.815Z,6.05
2023-03-30T15:48:43.233Z,6.43
2023-03-30T15:51:13.787Z,4.80
2023-03-30T15:56:27.353Z,5.55
2023-03-30T15:58:54.885Z,5.65
2023-03-30T16:01:23.412Z,7.47
2023-03-30T16:03:54.756Z,5.72
2023-03-30T16:06:22.902Z,6.37
2023-03-30T16:08:50.696Z,8.32
2023-03-30T16:11:18.751Z,5.93
2023-03-30T16:13:47.328Z,4.87
2023-03-30T16:16:15.744Z,5.55
2023-03-30T16:18:43.199Z,5.87
2023-03-30T16:21:11.085Z,4.93
2023-03-30T16:23:39.037Z,6.03
2023-03-30T16:26:09.553Z,4.85
2023-03-30T16:28:37.094Z,5.50
2023-03-30T16:31:16.220Z,4.43
2023-03-30T16:33:44.401Z,5.20
2023-03-30T16:36:18.050Z,3.83
2023-03-30T16:38:45.778Z,5.18
2023-03-30T16:41:21.368Z,5.03
2023-03-30T16:43:49.772Z,5.93
2023-03-30T16:46:20.998Z,5.18
2023-03-30T16:48:48.491Z,4.07
2023-03-30T16:51:16.803Z,4.07
2023-03-30T16:53:46.505Z,6.32
2023-03-30T16:56:16.890Z,7.00
2023-03-30T16:58:47.601Z,8.95
2023-03-30T17:01:18.623Z,12.15
2023-03-30T17:03:47.547Z,9.38
2023-03-30T17:06:17.101Z,11.18
2023-03-30T17:08:45.636Z,13.23
2023-03-30T17:11:14.209Z,8.25
2023-03-30T17:14:02.158Z,8.65
2023-03-30T17:17:12.015Z,9.55
2023-03-30T17:20:02.996Z,11.70
2023-03-30T17:23:11.319Z,11.85
2023-03-30T17:26:00.242Z,10.18
2023-03-30T17:28:32.254Z,7.40
2023-03-30T17:31:01.726Z,11.55
2023-03-30T17:36:58.542Z,11.10
2023-03-30T17:40:25.409Z,8.50
2023-03-30T17:42:57.065Z,7.90
2023-03-30T17:45:48.429Z,10.32
2023-03-30T17:48:20.797Z,9.63
2023-03-30T17:50:51.708Z,8.00
2023-03-30T17:53:21.391Z,8.45
2023-03-30T17:56:14.409Z,9.60
2023-03-30T17:59:04.434Z,7.82
2023-03-30T18:01:59.397Z,10.68
2023-03-30T18:04:35.794Z,11.73
2023-03-30T18:07:05.940Z,12.68
2023-03-30T18:09:49.695Z,9.98
2023-03-30T18:12:20.421Z,12.70
2023-03-30T18:14:51.149Z,13.30
2023-03-30T18:17:19.678Z,11.07
2023-03-30T18:19:49.123Z,9.07
2023-03-30T18:22:18.227Z,16.00
2023-03-30T18:24:46.829Z,13.20
2023-03-30T18:27:15.872Z,10.90
2023-03-30T18:32:44.299Z,9.77
2023-03-30T18:35:16.636Z,12.55
2023-03-30T18:38:06.206Z,9.82
2023-03-30T18:41:05.505Z,10.50
2023-03-30T18:43:55.924Z,10.70
2023-03-30T18:47:06.611Z,10.50
2023-03-30T18:49:55.459Z,9.80
2023-03-30T18:52:29.837Z,11.07
2023-03-30T18:55:20.336Z,12.57
2023-03-30T18:58:17.195Z,11.77
2023-03-30T19:01:00.823Z,12.57
2023-03-30T19:04:15.069Z,11.68
2023-03-30T19:06:45.129Z,12.00
2023-03-30T19:09:43.113Z,10.30
2023-03-30T19:12:13.659Z,12.55
2023-03-30T19:14:44.207Z,9.25
2023-03-30T19:17:13.702Z,10.88
2023-03-30T19:20:02.724Z,15.98
2023-03-30T19:22:53.788Z,12.95
2023-03-30T19:26:02.859Z,9.85
2023-03-30T19:28:52.126Z,11.95
2023-03-30T19:31:22.429Z,12.90
2023-03-30T19:33:51.972Z,9.70
2023-03-30T19:37:00.844Z,13.30
2023-03-30T19:39:29.131Z,23.80
2023-03-30T19:41:58.466Z,15.30
2023-03-30T19:44:27.388Z,15.23
2023-03-30T19:46:57.451Z,11.05
2023-03-30T19:49:26.641Z,12.95
2023-03-30T19:51:55.724Z,11.50
2023-03-30T19:54:24.262Z,8.45
2023-03-30T19:56:53.676Z,14.30
2023-03-30T19:59:22.372Z,10.73
2023-03-30T20:01:52.648Z,10.75
2023-03-30T20:04:22.085Z,12.98
2023-03-30T20:06:50.726Z,10.77
2023-03-30T20:09:19.969Z,12.85
2023-03-30T20:11:48.712Z,11.35
2023-03-30T20:14:16.579Z,12.75
2023-03-30T20:16:44.595Z,11.50
2023-03-30T20:19:28.595Z,8.45
2023-03-30T20:21:58.073Z,12.15
2023-03-30T20:24:26.943Z,8.98
2023-03-30T20:26:54.904Z,9.93
2023-03-30T20:29:22.806Z,7.55
2023-03-30T20:31:51.233Z,9.15
2023-03-30T20:34:19.849Z,10.80
2023-03-30T20:36:50.193Z,9.93
2023-03-30T20:39:18.370Z,7.53
2023-03-30T20:41:46.013Z,11.00
2023-03-30T20:44:13.815Z,12.18
2023-03-30T20:46:43.433Z,8.73
2023-03-30T20:49:11.790Z,8.40
2023-03-30T20:51:40.231Z,7.30
2023-03-30T20:54:08.020Z,7.80
2023-03-30T20:56:35.937Z,12.13
2023-03-30T20:59:03.951Z,8.75
2023-03-30T21:01:31.780Z,8.73
2023-03-30T21:03:59.899Z,8.57
2023-03-30T21:06:28.799Z,9.73
2023-03-30T21:09:01.365Z,10.17
2023-03-30T21:11:29.329Z,8.65
2023-03-30T21:13:57.118Z,7.82
2023-03-30T21:16:25.012Z,8.02
2023-03-30T21:18:52.511Z,9.93
2023-03-30T21:21:20.511Z,9.23
2023-03-30T21:23:47.974Z,9.60
2023-03-30T21:26:15.895Z,8.38
2023-03-30T21:28:43.620Z,9.68
2023-03-30T21:31:12.399Z,7.55
2023-03-30T21:33:40.002Z,8.95
2023-03-30T21:36:08.493Z,7.03
2023-03-30T21:38:36.360Z,9.73
2023-03-30T21:41:07.718Z,7.43
2023-03-30T21:43:36.685Z,8.98
2023-03-30T21:46:05.953Z,9.88
2023-03-30T21:48:35.280Z,8.75
2023-03-30T21:51:05.022Z,7.82
2023-03-30T21:53:32.614Z,10.05
2023-03-30T21:56:00.208Z,7.32
2023-03-30T21:58:28.120Z,7.43
2023-03-30T22:01:09.031Z,10.68
2023-03-30T22:03:41.342Z,7.35
2023-03-30T22:06:10.059Z,8.60
2023-03-30T22:08:37.565Z,8.90
2023-03-30T22:11:07.253Z,9.27
2023-03-30T22:13:34.700Z,8.18
2023-03-30T22:16:04.626Z,8.40
2023-03-30T22:18:32.705Z,10.00
2023-03-30T22:21:00.792Z,11.00
2023-03-30T22:23:28.282Z,9.98
2023-03-30T22:25:56.063Z,5.85
2023-03-30T22:28:23.788Z,7.97
2023-03-30T22:30:51.495Z,9.25
2023-03-30T22:33:19.258Z,6.95
2023-03-30T22:35:47.184Z,7.28
2023-03-30T22:38:15.031Z,6.82
2023-03-30T22:40:42.792Z,8.27
2023-03-30T22:43:11.221Z,8.18
2023-03-30T22:45:39.293Z,8.80
2023-03-30T22:48:07.214Z,6.85
2023-03-30T22:50:34.892Z,8.65
2023-03-30T22:53:02.337Z,7.85
2023-03-30T22:55:30.051Z,7.10
2023-03-30T22:57:57.783Z,7.22
2023-03-30T23:00:25.556Z,7.43
2023-03-30T23:02:53.429Z,6.72
2023-03-30T23:05:25.564Z,6.37
2023-03-30T23:07:53.562Z,9.23
2023-03-30T23:10:22.325Z,9.32
2023-03-30T23:12:49.810Z,6.90
2023-03-30T23:15:18.600Z,7.70
2023-03-30T23:17:47.463Z,8.30
2023-03-30T23:20:15.442Z,6.93
2023-03-30T23:22:43.304Z,7.75
2023-03-30T23:25:10.829Z,7.35
2023-03-30T23:27:38.267Z,8.23
2023-03-30T23:30:06.666Z,7.78
2023-03-30T23:32:34.623Z,6.68
2023-03-30T23:35:05.301Z,7.05
2023-03-30T23:37:33.029Z,5.60
2023-03-30T23:40:02.046Z,6.12
2023-03-30T23:42:29.554Z,7.85
2023-03-30T23:44:57.274Z,6.65
2023-03-30T23:47:24.757Z,5.57
2023-03-30T23:49:52.261Z,8.13
2023-03-30T23:52:19.976Z,5.20
2023-03-30T23:54:52.477Z,5.68
2023-03-30T23:57:20.454Z,5.82
2023-03-30T23:59:48.012Z,7.00
